Terminal Aerodrome Forecast
Issued by NWS

Home | Current Version | Previous Version | Text Only | Print | Product List | Glossary On
Versions: 1 2 3 4 5 6 7 8 9 10 11 12 13 14 15 16 17 18 19 20 21 22 23 24 25 26 27 28 29
000
FTUS42 KCAE 050131 AAA
TAFCUB
TAF AMD
KCUB 050131Z 0502/0524 05004KT 5SM -RA BR OVC015 WS020/18028KT
     FM051100 VRB03KT 3SM -RA BR OVC006
     FM051400 01003KT 3SM -RA BR OVC003
     FM051800 03005KT 4SM -RA BR OVC020=

USA.gov is the U.S. government's official web portal to all federal, state and local government web resources and services.